sim
Sign-in with your pilot id or email,
or register
Callsign
Passwort

Schedule Details

Flight Number: DLH2306 (1)
Departure: Munich Airport (EDDM) at 13:35
Arrival: Amsterdam Schiphol Airport (EHAM) at 15:10
Route: Lufthansa Passenger Schedule. Enter filed route here before submitting Pirep.

Weather Information
Getting current METAR information for EDDM 260750Z 26015KT 9999 -RADZ SCT016 BKN022 08/05 Q0999 NOSIG
Getting current METAR information for EHAM 260755Z VRB03KT 9999 FEW015 FEW018CB 13/09 Q0998 NOSIG

Schedule Frequency

Route Map